Terminal Aerodrome Forecast
Issued by NWS Buffalo, NY

Home | Current Version | Previous Version | Text Only | Print | Product List | Glossary On
Versions: 1 2 3 4 5 6 7 8 9 10 11 12 13 14 15 16 17 18 19 20 21 22 23 24 25
176
FTUS41 KBUF 200842 AAA
TAFROC
TAF AMD
KROC 200842Z 2009/2106 36003KT P6SM SCT050
     FM201500 02007KT P6SM SCT150
     FM210000 09006KT P6SM BKN150=

USA.gov is the U.S. government's official web portal to all federal, state and local government web resources and services.